Time;durP1;ratioP1;P1;durP2;ratioP2;P2;SDS_P1;SDS_P2;PMS_P1;PMS_P2;Temp;Humidity;BMP_temperature;BMP_pressure;BME280_temperature;BME280_humidity;BME280_pressure;Samples;Min_cycle;Max_cycle;Signal;HPM_P1;HPM_P2
2022/05/08 00:00:44;;;;;;;4.05;1.50;;;15.80;59.80;;;;;;5093902;28;20039;-73
2022/05/08 00:03:09;;;;;;;3.03;1.10;;;15.80;59.90;;;;;;5112759;28;20421;-72
2022/05/08 00:05:39;;;;;;;6.13;1.67;;;15.80;59.80;;;;;;5093818;28;20077;-65
2022/05/08 00:08:06;;;;;;;4.07;1.40;;;15.80;59.90;;;;;;5112236;28;20479;-73
2022/05/08 00:10:31;;;;;;;2.65;0.85;;;15.80;59.80;;;;;;5112045;28;20321;-72
2022/05/08 00:12:57;;;;;;;2.78;0.75;;;15.80;59.80;;;;;;5093927;28;20456;-72
2022/05/08 00:15:22;;;;;;;2.65;0.98;;;15.80;59.80;;;;;;5094180;28;20028;-72
2022/05/08 00:17:48;;;;;;;4.10;1.75;;;15.80;59.90;;;;;;5112022;28;20039;-73
2022/05/08 00:20:14;;;;;;;2.65;1.33;;;15.80;59.90;;;;;;5111958;28;20043;-72
2022/05/08 00:22:43;;;;;;;3.28;1.50;;;15.80;59.80;;;;;;5093782;28;20489;-72
2022/05/08 00:25:09;;;;;;;2.60;0.80;;;15.80;59.90;;;;;;5093941;28;20534;-71
2022/05/08 00:27:35;;;;;;;3.63;1.08;;;15.70;59.80;;;;;;5093987;28;20131;-72
2022/05/08 00:30:02;;;;;;;4.00;1.52;;;15.70;59.80;;;;;;5111892;28;20391;-72
2022/05/08 00:32:28;;;;;;;3.08;1.02;;;15.70;59.80;;;;;;5093682;28;20048;-73
2022/05/08 00:34:53;;;;;;;1.92;1.05;;;15.70;59.80;;;;;;5111811;28;20101;-72
2022/05/08 00:37:19;;;;;;;2.97;1.25;;;15.70;59.80;;;;;;5111891;28;20266;-69
2022/05/08 00:39:51;;;;;;;4.47;1.42;;;15.70;59.80;;;;;;5111869;28;20452;-73
2022/05/08 00:42:16;;;;;;;2.47;1.23;;;15.70;59.80;;;;;;5093966;28;20039;-72
2022/05/08 00:44:42;;;;;;;2.72;1.15;;;15.70;59.80;;;;;;5093561;28;20467;-65
2022/05/08 00:47:08;;;;;;;4.05;1.25;;;15.70;59.80;;;;;;5093426;28;20043;-72
2022/05/08 00:49:33;;;;;;;3.35;1.38;;;15.60;59.70;;;;;;5111374;28;20058;-73
2022/05/08 00:52:00;;;;;;;3.78;1.30;;;15.60;59.80;;;;;;5093565;28;20427;-72
2022/05/08 00:54:26;;;;;;;3.78;1.05;;;15.60;59.70;;;;;;5093407;28;20042;-72
2022/05/08 00:56:53;;;;;;;4.10;1.50;;;15.60;59.70;;;;;;5113161;28;20036;-73
2022/05/08 00:59:19;;;;;;;6.05;1.55;;;15.60;59.70;;;;;;5115381;28;20072;-70
2022/05/08 01:01:45;;;;;;;2.60;1.38;;;15.60;59.60;;;;;;5115392;28;20059;-73
2022/05/08 01:04:10;;;;;;;3.47;1.38;;;15.60;59.60;;;;;;5096871;28;20032;-72
2022/05/08 01:06:36;;;;;;;4.22;1.45;;;15.60;59.60;;;;;;5097245;28;20038;-68
2022/05/08 01:09:02;;;;;;;3.47;1.95;;;15.50;59.50;;;;;;5096792;28;20482;-72
2022/05/08 01:11:28;;;;;;;2.25;1.05;;;15.50;59.50;;;;;;5115294;28;20038;-73
2022/05/08 01:13:54;;;;;;;3.40;1.35;;;15.50;59.50;;;;;;5097063;28;20044;-72
2022/05/08 01:16:21;;;;;;;3.90;1.20;;;15.50;60.10;;;;;;5115017;28;20039;-72
2022/05/08 01:18:48;;;;;;;2.70;1.13;;;15.50;59.40;;;;;;5096719;28;20036;-72
2022/05/08 01:21:17;;;;;;;2.85;1.10;;;15.50;59.40;;;;;;5097527;28;20048;-72
2022/05/08 01:23:43;;;;;;;6.68;1.17;;;15.50;59.40;;;;;;5097397;28;20032;-72
2022/05/08 01:26:09;;;;;;;4.40;1.17;;;15.40;59.30;;;;;;5115093;28;20111;-72
2022/05/08 01:28:35;;;;;;;3.80;1.55;;;15.40;59.30;;;;;;5096419;28;20458;-73
2022/05/08 01:31:01;;;;;;;3.13;1.00;;;15.40;59.30;;;;;;5096526;28;20051;-72
2022/05/08 01:33:30;;;;;;;1.92;0.88;;;15.40;59.30;;;;;;5096400;28;20044;-72
2022/05/08 01:35:56;;;;;;;3.47;1.08;;;15.40;59.30;;;;;;5096295;28;20092;-73
2022/05/08 01:38:23;;;;;;;3.20;1.08;;;15.40;59.30;;;;;;5114774;28;20040;-72
2022/05/08 01:40:50;;;;;;;4.72;0.93;;;15.40;59.20;;;;;;5096524;28;20387;-64
2022/05/08 01:43:16;;;;;;;4.47;0.90;;;15.40;59.20;;;;;;5096495;28;20039;-72
2022/05/08 01:45:42;;;;;;;2.85;0.93;;;15.30;59.10;;;;;;5096253;28;20119;-72
2022/05/08 01:48:23;;;;;;;3.50;0.90;;;15.30;59.10;;;;;;5096407;28;20177;-73
2022/05/08 01:50:53;;;;;;;4.40;0.93;;;15.30;59.10;;;;;;5096084;28;20149;-67
2022/05/08 01:53:20;;;;;;;3.70;1.30;;;15.30;59.10;;;;;;5096313;28;20035;-72
2022/05/08 01:55:49;;;;;;;6.20;1.33;;;15.30;59.10;;;;;;5095955;28;20043;-72
2022/05/08 01:58:18;;;;;;;2.88;1.20;;;15.30;59.10;;;;;;5096241;28;20539;-72
2022/05/08 02:00:45;;;;;;;3.40;1.05;;;15.20;59.10;;;;;;5114114;28;20040;-72
2022/05/08 02:03:12;;;;;;;2.90;1.35;;;15.30;59.10;;;;;;5096174;28;20047;-71
2022/05/08 02:05:40;;;;;;;2.53;1.00;;;15.20;59.00;;;;;;5095861;28;20050;-73
2022/05/08 02:08:05;;;;;;;3.10;1.25;;;15.20;59.00;;;;;;5114077;28;20047;-72
2022/05/08 02:10:31;;;;;;;2.95;0.93;;;15.20;59.00;;;;;;5095733;28;20101;-72
2022/05/08 02:12:57;;;;;;;2.95;1.13;;;15.20;59.00;;;;;;5095760;28;20398;-72
2022/05/08 02:15:23;;;;;;;3.38;1.08;;;15.20;59.00;;;;;;5095987;28;20034;-73
2022/05/08 02:17:48;;;;;;;4.20;1.00;;;15.20;59.00;;;;;;5113744;28;20494;-72
2022/05/08 02:20:14;;;;;;;4.10;2.08;;;15.20;59.00;;;;;;5095777;28;20040;-72
2022/05/08 02:22:40;;;;;;;4.78;1.20;;;15.20;59.00;;;;;;5113878;28;20422;-72
2022/05/08 02:25:07;;;;;;;2.83;0.90;;;15.10;58.90;;;;;;5095661;28;20268;-69
2022/05/08 02:27:40;;;;;;;4.00;0.90;;;15.20;59.00;;;;;;5095755;28;20039;-72
2022/05/08 02:30:07;;;;;;;4.72;1.20;;;15.10;58.90;;;;;;5095344;28;20109;-72
2022/05/08 02:32:33;;;;;;;6.00;1.10;;;15.10;58.90;;;;;;5095327;28;20043;-72
2022/05/08 02:34:59;;;;;;;4.78;1.35;;;15.10;58.90;;;;;;5113445;28;20043;-73
2022/05/08 02:37:24;;;;;;;3.83;1.23;;;15.10;58.90;;;;;;5095219;28;20039;-72
2022/05/08 02:39:50;;;;;;;3.88;1.17;;;15.10;58.90;;;;;;5113630;28;20035;-72
2022/05/08 02:42:18;;;;;;;3.63;0.98;;;15.10;58.90;;;;;;5095397;28;20498;-72
2022/05/08 02:44:44;;;;;;;2.00;0.95;;;15.10;58.80;;;;;;5095390;28;20054;-72
2022/05/08 02:47:09;;;;;;;2.65;0.80;;;15.00;58.80;;;;;;5094889;28;20043;-72
2022/05/08 02:49:35;;;;;;;5.82;1.60;;;15.00;58.80;;;;;;5091441;28;20101;-68
2022/05/08 02:52:01;;;;;;;3.95;1.17;;;15.00;58.80;;;;;;5091404;28;20044;-72
2022/05/08 02:54:26;;;;;;;3.55;0.95;;;15.00;58.80;;;;;;5091782;28;20043;-71
2022/05/08 02:59:37;;;;;;;3.58;1.15;;;15.00;58.70;;;;;;5074368;28;20039;-64
2022/05/08 03:02:03;;;;;;;3.45;1.63;;;14.90;58.50;;;;;;5074495;28;20048;-65
2022/05/08 03:04:29;;;;;;;3.45;0.90;;;15.00;58.60;;;;;;5074461;28;20040;-72
2022/05/08 03:06:55;;;;;;;6.55;1.30;;;14.90;58.60;;;;;;5092946;28;20036;-72
2022/05/08 03:09:20;;;;;;;4.60;1.10;;;14.90;58.50;;;;;;5092509;28;20475;-71
2022/05/08 03:11:46;;;;;;;4.53;1.08;;;14.90;58.50;;;;;;5074424;28;20052;-74
2022/05/08 03:14:15;;;;;;;2.60;0.88;;;14.90;58.50;;;;;;5057924;28;20047;-71
2022/05/08 03:16:41;;;;;;;4.47;1.38;;;14.90;58.50;;;;;;5074388;28;20097;-69
2022/05/08 03:19:07;;;;;;;2.75;0.80;;;14.90;58.50;;;;;;5073908;28;20048;-72
2022/05/08 03:21:34;;;;;;;4.40;1.02;;;14.80;58.40;;;;;;5074180;28;20044;-72
2022/05/08 03:24:00;;;;;;;4.20;0.90;;;14.90;58.40;;;;;;5074484;28;20036;-72
2022/05/08 03:26:28;;;;;;;4.25;0.93;;;14.80;58.30;;;;;;5092227;28;20400;-73
2022/05/08 03:28:54;;;;;;;4.43;1.20;;;14.90;58.40;;;;;;5092079;28;20043;-72
2022/05/08 03:31:21;;;;;;;1.83;0.95;;;14.80;58.30;;;;;;5073978;28;20050;-72
2022/05/08 03:33:46;;;;;;;4.18;0.70;;;14.80;58.30;;;;;;5074310;28;20036;-72
2022/05/08 03:36:12;;;;;;;3.05;1.20;;;14.80;58.30;;;;;;5074259;28;20039;-72
2022/05/08 03:38:44;;;;;;;4.00;1.33;;;14.80;58.20;;;;;;5092091;28;20465;-72
2022/05/08 03:41:09;;;;;;;3.42;0.88;;;14.80;58.20;;;;;;5092031;28;20490;-71
2022/05/08 03:43:36;;;;;;;3.30;0.95;;;14.80;58.20;;;;;;5074146;28;20127;-71
2022/05/08 03:46:02;;;;;;;4.50;1.42;;;14.80;58.20;;;;;;5092002;28;20458;-71
2022/05/08 03:48:27;;;;;;;4.90;0.95;;;14.70;58.20;;;;;;5091680;28;20423;-73
2022/05/08 03:50:53;;;;;;;3.60;1.10;;;14.70;58.20;;;;;;5092067;28;20135;-72
2022/05/08 03:53:19;;;;;;;3.53;0.88;;;14.70;58.10;;;;;;5092035;28;20120;-72
2022/05/08 03:55:47;;;;;;;2.38;0.82;;;14.70;58.10;;;;;;5091883;28;20434;-72
2022/05/08 03:58:16;;;;;;;4.05;1.17;;;14.80;58.10;;;;;;5073778;28;20123;-71
2022/05/08 04:00:41;;;;;;;3.92;0.50;;;14.70;58.00;;;;;;5073661;28;20515;-71
2022/05/08 04:03:07;;;;;;;2.85;0.60;;;14.70;58.00;;;;;;5073948;28;20075;-72
2022/05/08 04:05:32;;;;;;;3.25;0.70;;;14.70;58.00;;;;;;5073826;28;20083;-71
2022/05/08 04:07:58;;;;;;;2.28;0.75;;;14.70;58.00;;;;;;5073656;28;20055;-63
2022/05/08 04:10:24;;;;;;;3.75;0.80;;;14.60;57.90;;;;;;5073697;28;20051;-71
2022/05/08 04:12:49;;;;;;;2.55;0.90;;;14.70;57.90;;;;;;5091829;28;20043;-71
2022/05/08 04:18:01;;;;;;;3.35;0.93;;;14.70;57.80;;;;;;5073399;28;20044;-71
2022/05/08 04:20:27;;;;;;;3.00;0.60;;;14.60;57.80;;;;;;5073606;28;20048;-72
2022/05/08 04:25:38;;;;;;;3.92;1.05;;;14.60;57.70;;;;;;5073318;28;20052;-74
2022/05/08 04:28:04;;;;;;;2.83;0.80;;;14.60;57.70;;;;;;5073663;28;20042;-72
2022/05/08 04:30:30;;;;;;;3.58;1.00;;;14.60;57.60;;;;;;5073458;28;20430;-72
2022/05/08 04:32:55;;;;;;;3.50;0.77;;;14.60;57.60;;;;;;5094866;28;20387;-72
2022/05/08 04:35:21;;;;;;;3.75;0.80;;;14.60;57.60;;;;;;5077284;28;20036;-72
2022/05/08 04:37:47;;;;;;;2.90;0.90;;;14.60;57.50;;;;;;5095475;28;20036;-72
2022/05/08 04:40:12;;;;;;;2.75;0.50;;;14.60;57.50;;;;;;5095330;28;20522;-72
2022/05/08 04:42:39;;;;;;;2.08;0.60;;;14.60;57.50;;;;;;5077023;28;20071;-72
2022/05/08 04:45:05;;;;;;;3.33;1.02;;;14.60;57.40;;;;;;5077306;28;20117;-73
2022/05/08 04:47:31;;;;;;;2.05;0.40;;;14.60;57.40;;;;;;5077335;28;20098;-72
2022/05/08 04:49:56;;;;;;;2.35;0.63;;;14.60;57.40;;;;;;5063022;28;20083;-71
2022/05/08 04:52:22;;;;;;;3.03;0.60;;;14.60;57.40;;;;;;5057103;28;20033;-71
2022/05/08 04:54:47;;;;;;;3.30;0.82;;;14.60;57.40;;;;;;5056870;28;20250;-70
2022/05/08 04:57:13;;;;;;;3.08;0.73;;;14.60;57.40;;;;;;5056952;28;20040;-71
2022/05/08 04:59:39;;;;;;;2.70;0.80;;;14.60;57.40;;;;;;5074502;28;20044;-70
2022/05/08 05:02:05;;;;;;;3.08;0.73;;;14.60;57.30;;;;;;5076140;28;20041;-71
2022/05/08 05:04:31;;;;;;;3.42;0.70;;;14.60;57.20;;;;;;5075475;28;20114;-71
2022/05/08 05:07:00;;;;;;;3.30;0.93;;;14.60;58.00;;;;;;5057338;28;20032;-71
2022/05/08 05:09:25;;;;;;;3.35;0.60;;;14.60;57.20;;;;;;5056614;28;20048;-70
2022/05/08 05:11:51;;;;;;;2.35;0.55;;;14.60;57.20;;;;;;5056540;28;20040;-73
2022/05/08 05:14:17;;;;;;;2.53;0.52;;;14.60;57.20;;;;;;5056465;28;20125;-71
2022/05/08 05:16:42;;;;;;;2.58;0.85;;;14.60;57.20;;;;;;5056465;28;20133;-72
2022/05/08 05:19:08;;;;;;;4.65;1.05;;;14.60;57.20;;;;;;5056463;28;20041;-71
2022/05/08 05:21:33;;;;;;;2.90;1.00;;;14.60;57.20;;;;;;5074303;28;20045;-71
2022/05/08 05:23:59;;;;;;;2.35;0.65;;;14.60;57.20;;;;;;5074240;28;20032;-70
2022/05/08 05:26:25;;;;;;;2.00;0.52;;;14.60;57.20;;;;;;5074266;28;20476;-69
2022/05/08 05:28:51;;;;;;;3.63;0.90;;;14.60;57.20;;;;;;5056237;28;20040;-74
2022/05/08 05:31:17;;;;;;;2.10;0.60;;;14.60;57.20;;;;;;5056755;28;20044;-71
2022/05/08 05:33:46;;;;;;;2.28;0.43;;;14.60;57.30;;;;;;5056069;28;20447;-72
2022/05/08 05:36:13;;;;;;;1.70;0.50;;;14.60;57.20;;;;;;5056161;28;20040;-71
2022/05/08 05:38:39;;;;;;;4.43;0.65;;;14.60;57.10;;;;;;5056100;28;20519;-64
2022/05/08 05:41:05;;;;;;;1.90;0.50;;;14.60;57.20;;;;;;5073919;28;20045;-71
2022/05/08 05:43:32;;;;;;;2.78;0.52;;;14.60;57.10;;;;;;5073572;28;20384;-71
2022/05/08 05:48:43;;;;;;;2.67;0.88;;;14.60;57.10;;;;;;5059094;28;20071;-71
2022/05/08 05:51:09;;;;;;;3.22;0.50;;;14.60;57.10;;;;;;5076132;28;20491;-71
2022/05/08 05:53:35;;;;;;;2.80;0.52;;;14.60;57.10;;;;;;5093946;28;20085;-72
2022/05/08 05:56:01;;;;;;;3.08;0.40;;;14.60;57.00;;;;;;5093996;28;20031;-63
2022/05/08 05:58:29;;;;;;;3.47;0.73;;;14.60;57.10;;;;;;5075644;28;20155;-70
2022/05/08 06:00:55;;;;;;;2.58;0.70;;;14.60;57.10;;;;;;5093863;28;20487;-72
2022/05/08 06:03:21;;;;;;;2.05;0.82;;;14.60;57.00;;;;;;5075637;28;20047;-71
2022/05/08 06:05:47;;;;;;;3.58;0.88;;;14.60;57.00;;;;;;5075578;28;20055;-71
2022/05/08 06:08:12;;;;;;;2.47;0.55;;;14.60;56.90;;;;;;5075592;28;20047;-71
2022/05/08 06:10:41;;;;;;;2.35;0.98;;;14.60;57.00;;;;;;5075487;28;20040;-71
2022/05/08 06:13:07;;;;;;;2.42;0.65;;;14.60;57.00;;;;;;5093951;28;20048;-71
2022/05/08 06:15:32;;;;;;;2.65;0.50;;;14.60;56.90;;;;;;5093627;28;20092;-72
2022/05/08 06:17:58;;;;;;;1.67;0.60;;;14.60;56.90;;;;;;5093470;28;20111;-64
2022/05/08 06:20:23;;;;;;;1.77;0.40;;;14.60;56.90;;;;;;5075372;28;20533;-71
2022/05/08 06:22:49;;;;;;;1.88;0.60;;;14.60;56.80;;;;;;5075260;28;20050;-70
2022/05/08 06:25:15;;;;;;;2.83;0.55;;;14.60;56.80;;;;;;5075513;28;20044;-66
2022/05/08 06:27:40;;;;;;;2.08;0.50;;;14.60;56.80;;;;;;5075122;28;20055;-70
2022/05/08 06:30:07;;;;;;;2.35;0.50;;;14.70;56.80;;;;;;5075135;28;20036;-71
2022/05/08 06:32:34;;;;;;;2.33;0.50;;;14.60;56.70;;;;;;5075503;28;20044;-71
2022/05/08 06:35:03;;;;;;;3.40;0.93;;;14.70;56.80;;;;;;5093284;28;20040;-71
2022/05/08 06:37:28;;;;;;;2.15;0.40;;;14.70;56.70;;;;;;5093195;28;20032;-71
2022/05/08 06:39:54;;;;;;;1.23;0.30;;;14.70;56.60;;;;;;5092942;28;20085;-72
2022/05/08 06:42:20;;;;;;;2.80;0.55;;;14.70;56.60;;;;;;5074974;28;20399;-71
2022/05/08 06:44:45;;;;;;;1.80;0.40;;;14.70;56.60;;;;;;5074839;28;20083;-71
2022/05/08 06:47:11;;;;;;;2.22;0.30;;;14.70;56.60;;;;;;5074730;28;20062;-71
2022/05/08 06:49:37;;;;;;;4.20;0.65;;;14.70;56.60;;;;;;5092671;28;20086;-71
2022/05/08 06:52:03;;;;;;;1.77;0.30;;;14.80;56.50;;;;;;5074972;28;20051;-71
2022/05/08 06:54:28;;;;;;;2.35;0.90;;;14.80;56.50;;;;;;5092169;28;20380;-71
2022/05/08 06:56:56;;;;;;;2.22;0.55;;;14.80;56.50;;;;;;5074962;28;20047;-63
2022/05/08 07:02:09;;;;;;;2.85;0.50;;;14.90;57.10;;;;;;5074636;28;20106;-70
2022/05/08 07:04:34;;;;;;;4.38;0.68;;;14.80;56.30;;;;;;5074373;28;20491;-72
2022/05/08 07:07:00;;;;;;;2.22;0.60;;;14.80;56.20;;;;;;5074498;28;20076;-71
2022/05/08 07:09:26;;;;;;;2.30;0.68;;;14.90;56.20;;;;;;5074501;28;20069;-71
2022/05/08 07:11:55;;;;;;;1.98;0.50;;;14.90;56.10;;;;;;5074542;28;20392;-71
2022/05/08 07:14:20;;;;;;;1.77;0.70;;;14.90;56.00;;;;;;5074279;28;20036;-69
2022/05/08 07:16:46;;;;;;;4.40;0.65;;;14.90;56.00;;;;;;5074732;28;20036;-64
2022/05/08 07:19:12;;;;;;;2.30;0.38;;;15.00;55.90;;;;;;5074365;28;20523;-63
2022/05/08 07:21:37;;;;;;;2.35;0.60;;;15.00;55.80;;;;;;5074168;28;20050;-71
2022/05/08 07:24:04;;;;;;;3.50;0.40;;;15.00;55.70;;;;;;5092253;28;20122;-71
2022/05/08 07:26:30;;;;;;;2.72;0.50;;;15.10;55.60;;;;;;5092191;28;20487;-67
2022/05/08 07:28:55;;;;;;;2.63;0.50;;;15.10;55.50;;;;;;5074045;28;20040;-70
2022/05/08 07:31:21;;;;;;;2.03;0.40;;;15.10;55.40;;;;;;5074041;28;20044;-67
2022/05/08 07:33:47;;;;;;;2.00;0.43;;;15.10;55.30;;;;;;5074219;28;20042;-71
2022/05/08 07:36:12;;;;;;;2.53;0.38;;;15.10;55.20;;;;;;5092218;28;20506;-71
2022/05/08 07:41:20;;;;;;;1.45;0.30;;;15.20;55.10;;;;;;5130167;27;20397;-71
2022/05/08 07:43:46;;;;;;;2.78;0.30;;;15.20;55.00;;;;;;5129002;28;20068;-71
2022/05/08 07:46:12;;;;;;;2.92;0.88;;;15.20;54.90;;;;;;5128916;28;20061;-71
2022/05/08 07:48:38;;;;;;;1.15;0.32;;;15.30;54.80;;;;;;5128995;28;20075;-63
2022/05/08 07:51:04;;;;;;;2.85;0.50;;;15.30;54.70;;;;;;5130221;27;20066;-71
2022/05/08 07:53:31;;;;;;;1.70;0.40;;;15.40;54.50;;;;;;5129059;28;20100;-71
2022/05/08 07:55:58;;;;;;;2.35;0.50;;;15.40;54.40;;;;;;5128591;28;20554;-71
2022/05/08 07:58:27;;;;;;;1.65;0.40;;;15.40;54.30;;;;;;5128996;28;20043;-67
2022/05/08 08:00:55;;;;;;;1.25;0.45;;;15.50;54.20;;;;;;5128609;28;20067;-71
2022/05/08 08:03:30;;;;;;;2.45;0.73;;;15.50;54.00;;;;;;5128702;28;20085;-71
2022/05/08 08:05:57;;;;;;;2.40;0.40;;;15.60;53.90;;;;;;5128502;28;20085;-70
2022/05/08 08:08:25;;;;;;;1.83;0.95;;;15.60;53.70;;;;;;5128778;28;20051;-71
2022/05/08 08:10:52;;;;;;;2.10;0.40;;;15.70;53.50;;;;;;5128652;28;20375;-72
2022/05/08 08:13:19;;;;;;;2.08;0.40;;;15.80;53.40;;;;;;5129761;27;20059;-71
2022/05/08 08:15:47;;;;;;;1.13;0.25;;;15.80;53.20;;;;;;5128677;28;20089;-71
2022/05/08 08:18:13;;;;;;;1.88;0.40;;;15.80;53.10;;;;;;5128473;28;20091;-70
2022/05/08 08:20:39;;;;;;;1.67;0.40;;;15.90;53.00;;;;;;5128285;28;20485;-72
2022/05/08 08:23:05;;;;;;;1.73;0.90;;;15.90;52.90;;;;;;5128108;28;20043;-71
2022/05/08 08:25:31;;;;;;;1.08;0.25;;;16.00;52.70;;;;;;5128195;28;20563;-63
2022/05/08 08:27:56;;;;;;;2.10;0.30;;;16.00;52.60;;;;;;5129549;28;20032;-71
2022/05/08 08:30:22;;;;;;;3.05;0.22;;;16.10;52.50;;;;;;5145319;27;20047;-72
2022/05/08 08:32:48;;;;;;;1.73;0.40;;;16.10;52.40;;;;;;5128057;28;20044;-71
2022/05/08 08:35:14;;;;;;;0.63;0.30;;;16.10;52.30;;;;;;5128315;28;20039;-72
2022/05/08 08:37:40;;;;;;;2.00;0.45;;;16.20;52.20;;;;;;5128276;28;20547;-71
2022/05/08 08:40:06;;;;;;;2.55;0.40;;;16.20;52.10;;;;;;5127742;27;20055;-71
2022/05/08 08:42:32;;;;;;;1.17;0.35;;;16.20;51.90;;;;;;5127844;27;20051;-72
2022/05/08 08:48:03;;;;;;;1.42;0.30;;;16.20;51.90;;;;;;5130198;27;20443;-72
2022/05/08 08:50:29;;;;;;;2.92;0.30;;;16.20;51.80;;;;;;5146586;27;20053;-67
2022/05/08 08:52:58;;;;;;;1.00;0.30;;;16.20;51.80;;;;;;5129279;28;20481;-72
2022/05/08 08:55:27;;;;;;;1.00;0.20;;;16.30;51.60;;;;;;5130223;27;20065;-72
2022/05/08 08:57:53;;;;;;;2.30;0.40;;;16.50;51.30;;;;;;5129060;28;20043;-73
2022/05/08 09:00:21;;;;;;;1.73;0.20;;;16.80;50.90;;;;;;5129007;28;20045;-72
2022/05/08 09:02:48;;;;;;;2.15;0.28;;;17.00;50.20;;;;;;5128671;28;20032;-67
2022/05/08 09:05:14;;;;;;;2.50;0.30;;;17.30;49.60;;;;;;5129841;27;20403;-66
2022/05/08 09:10:23;;;;;;;2.55;0.38;;;17.40;49.00;;;;;;5130413;27;20403;-71
2022/05/08 09:15:34;;;;;;;2.00;0.22;;;17.60;48.60;;;;;;5130280;27;20354;-72
2022/05/08 09:18:05;;;;;;;1.70;0.20;;;17.80;48.70;;;;;;5129068;28;20051;-72
2022/05/08 09:23:19;;;;;;;2.58;0.30;;;18.00;47.60;;;;;;5150972;27;20461;-72
2022/05/08 09:28:28;;;;;;;1.50;0.20;;;18.00;47.40;;;;;;5152679;27;1154532;-71
2022/05/08 09:36:20;;;;;;;0.88;0.30;;;18.10;47.10;;;;;;5130372;27;20357;-71
2022/05/08 09:44:13;;;;;;;1.00;0.20;;;18.20;47.00;;;;;;5130592;27;20403;-72
2022/05/08 09:46:40;;;;;;;0.95;0.20;;;18.20;46.90;;;;;;5129043;28;20047;-72
2022/05/08 09:49:11;;;;;;;1.05;0.20;;;18.10;46.90;;;;;;5128789;28;20092;-72
2022/05/08 09:51:38;;;;;;;1.38;0.30;;;18.10;46.90;;;;;;5129141;28;20491;-72
2022/05/08 09:54:04;;;;;;;2.20;0.35;;;18.10;47.00;;;;;;5146057;27;20047;-72
2022/05/08 09:56:31;;;;;;;1.50;0.30;;;18.10;47.00;;;;;;5129000;28;20100;-72
2022/05/08 09:58:57;;;;;;;2.25;0.30;;;18.10;47.00;;;;;;5130123;27;20043;-72
2022/05/08 10:01:24;;;;;;;1.75;0.40;;;18.10;47.00;;;;;;5128664;28;20054;-71
2022/05/08 10:03:51;;;;;;;1.77;0.20;;;18.10;47.10;;;;;;5128603;28;20053;-72
2022/05/08 10:06:18;;;;;;;1.45;0.38;;;18.00;47.00;;;;;;5128536;28;20093;-72
2022/05/08 10:08:45;;;;;;;2.10;0.40;;;18.00;47.00;;;;;;5130077;27;20043;-72
2022/05/08 10:14:06;;;;;;;2.47;0.40;;;18.00;47.10;;;;;;5129605;27;20051;-71
2022/05/08 10:22:06;;;;;;;3.03;0.95;;;17.90;47.30;;;;;;5111503;27;1160031;-72
2022/05/08 10:35:26;;;;;;;2.10;0.38;;;17.80;47.40;;;;;;5089484;27;20384;-72
2022/05/08 10:40:46;;;;;;;1.40;0.30;;;17.70;47.70;;;;;;5151008;27;20566;-72
2022/05/08 10:45:52;;;;;;;1.48;0.30;;;17.70;47.70;;;;;;5130239;27;20354;-72
2022/05/08 10:48:19;;;;;;;1.60;0.35;;;17.60;47.70;;;;;;5129162;28;20372;-72
2022/05/08 10:50:55;;;;;;;1.13;0.20;;;17.60;47.80;;;;;;5129424;27;20051;-72
2022/05/08 10:53:30;;;;;;;2.60;0.40;;;17.60;47.90;;;;;;5129222;28;20055;-74
2022/05/08 10:56:06;;;;;;;1.20;0.32;;;17.50;47.90;;;;;;5129084;28;20474;-72
2022/05/08 10:58:41;;;;;;;1.27;0.20;;;17.50;47.90;;;;;;5128952;28;20376;-72
2022/05/08 11:01:09;;;;;;;0.90;0.30;;;17.50;48.00;;;;;;5129003;28;20043;-72
2022/05/08 11:03:36;;;;;;;1.95;0.20;;;17.50;48.10;;;;;;5128550;28;20050;-71
2022/05/08 11:06:02;;;;;;;1.85;0.32;;;17.50;48.10;;;;;;5128704;28;20088;-72
2022/05/08 11:08:31;;;;;;;1.83;0.40;;;17.40;48.10;;;;;;5146076;27;20036;-72
2022/05/08 11:13:52;;;;;;;1.98;0.30;;;17.40;48.20;;;;;;5130330;27;20414;-72
2022/05/08 11:16:34;;;;;;;;;;;17.40;48.20;;;;;;5129402;28;20100;-72
2022/05/08 11:19:01;;;;;;;1.73;0.57;;;17.40;48.40;;;;;;5128947;28;20409;-72
2022/05/08 11:21:27;;;;;;;2.90;0.30;;;17.30;48.30;;;;;;5128927;28;20532;-72
2022/05/08 11:23:56;;;;;;;1.83;0.20;;;17.30;48.40;;;;;;5128974;28;20063;-72
2022/05/08 11:26:36;;;;;;;1.17;0.13;;;17.30;48.40;;;;;;5146037;27;20086;-72
2022/05/08 11:29:03;;;;;;;3.17;0.40;;;17.30;48.40;;;;;;5128921;28;20093;-71
2022/05/08 11:31:28;;;;;;;1.98;0.40;;;17.30;48.50;;;;;;5128937;28;20051;-72
2022/05/08 11:36:44;;;;;;;3.10;0.40;;;17.30;48.50;;;;;;5128375;28;20538;-72
2022/05/08 11:41:54;;;;;;;2.33;0.50;;;17.30;48.50;;;;;;5130148;27;20394;-71
2022/05/08 11:44:23;;;;;;;2.00;0.20;;;17.30;48.60;;;;;;5128954;28;20122;-72
2022/05/08 11:46:55;;;;;;;1.70;0.40;;;17.30;48.60;;;;;;5130125;27;20058;-72
2022/05/08 11:52:02;;;;;;;2.05;0.30;;;17.30;48.50;;;;;;5152650;27;1171471;-72
2022/05/08 12:00:06;;;;;;;1.48;0.22;;;17.30;48.50;;;;;;5111469;27;1158573;-71
2022/05/08 12:02:49;;;;;;;1.40;0.20;;;17.30;48.50;;;;;;5111848;28;20061;-72
2022/05/08 12:05:24;;;;;;;1.40;0.70;;;17.30;48.50;;;;;;5111791;28;20043;-69
2022/05/08 12:07:51;;;;;;;2.42;0.50;;;17.20;48.40;;;;;;5111696;28;20048;-72
2022/05/08 12:10:17;;;;;;;1.67;0.32;;;17.30;48.50;;;;;;5111581;28;20115;-72
2022/05/08 12:12:44;;;;;;;1.70;0.50;;;17.30;48.50;;;;;;5111882;28;20040;-72
2022/05/08 12:20:36;;;;;;;1.90;0.40;;;17.30;48.50;;;;;;5130196;27;20382;-69
2022/05/08 12:25:45;;;;;;;3.15;0.43;;;17.30;48.40;;;;;;5130312;27;20383;-64
2022/05/08 12:28:13;;;;;;;3.42;0.55;;;17.30;48.50;;;;;;5112453;28;20059;-71
2022/05/08 12:30:38;;;;;;;2.35;0.30;;;17.30;48.40;;;;;;5130205;27;20111;-71
2022/05/08 12:33:05;;;;;;;1.40;0.30;;;17.30;48.40;;;;;;5128936;28;20486;-71
2022/05/08 12:35:31;;;;;;;1.25;0.30;;;17.40;48.50;;;;;;5146292;27;20047;-70
2022/05/08 12:37:57;;;;;;;1.55;0.30;;;17.30;48.40;;;;;;5130299;27;20035;-63
2022/05/08 12:40:23;;;;;;;2.35;0.80;;;17.40;48.40;;;;;;5128931;28;20054;-71
2022/05/08 12:42:48;;;;;;;3.45;0.40;;;17.40;48.40;;;;;;5129012;28;20398;-71
2022/05/08 12:45:14;;;;;;;2.20;0.30;;;17.40;48.40;;;;;;5128568;28;20047;-71
2022/05/08 12:47:40;;;;;;;2.75;0.43;;;17.40;48.40;;;;;;5128898;28;20124;-71
2022/05/08 12:50:06;;;;;;;2.42;0.77;;;17.40;48.40;;;;;;5128532;28;20039;-71
2022/05/08 12:52:35;;;;;;;2.80;0.60;;;17.40;48.30;;;;;;5128605;28;20097;-71
2022/05/08 12:55:01;;;;;;;2.60;0.30;;;17.40;48.30;;;;;;5129813;27;20035;-71
2022/05/08 13:00:12;;;;;;;2.00;0.20;;;17.40;48.20;;;;;;5128202;28;20047;-71
2022/05/08 13:02:38;;;;;;;1.75;0.32;;;17.40;48.30;;;;;;5128539;28;20039;-71
2022/05/08 13:05:08;;;;;;;1.80;0.40;;;17.40;48.20;;;;;;5129692;28;20092;-71
2022/05/08 13:07:33;;;;;;;2.25;0.57;;;17.40;48.20;;;;;;5128443;28;20051;-71
2022/05/08 13:09:59;;;;;;;2.20;0.30;;;17.40;48.20;;;;;;5129482;28;20043;-71
2022/05/08 13:12:25;;;;;;;1.75;0.20;;;17.40;48.20;;;;;;5128089;27;20036;-71
2022/05/08 13:14:50;;;;;;;1.40;0.22;;;17.40;48.20;;;;;;5128157;28;20073;-71
2022/05/08 13:17:16;;;;;;;1.25;0.30;;;17.40;48.20;;;;;;5129077;28;20054;-71
2022/05/08 13:19:41;;;;;;;1.63;0.30;;;17.40;48.20;;;;;;5128239;27;20031;-72
2022/05/08 13:22:10;;;;;;;3.33;0.30;;;17.40;48.10;;;;;;5127878;27;20050;-71
2022/05/08 13:24:36;;;;;;;1.35;0.30;;;17.50;48.20;;;;;;5127627;28;20063;-69
2022/05/08 13:27:02;;;;;;;1.67;0.25;;;17.50;48.20;;;;;;5145170;27;20490;-71
2022/05/08 13:29:32;;;;;;;1.77;0.50;;;17.60;48.20;;;;;;5129076;27;20069;-71
2022/05/08 13:31:58;;;;;;;2.65;0.40;;;17.50;48.20;;;;;;5127667;28;20118;-70
2022/05/08 13:34:28;;;;;;;1.02;0.30;;;17.50;48.10;;;;;;5129255;27;20035;-71
2022/05/08 13:36:56;;;;;;;2.25;0.50;;;17.50;48.10;;;;;;5115771;27;20476;-68
2022/05/08 13:39:23;;;;;;;0.90;0.20;;;17.50;48.10;;;;;;5115082;28;20047;-71
2022/05/08 13:41:49;;;;;;;1.02;0.25;;;17.50;48.10;;;;;;5115169;28;20436;-71
2022/05/08 13:44:15;;;;;;;1.88;0.30;;;17.50;48.00;;;;;;5115158;28;20043;-71
2022/05/08 13:46:41;;;;;;;2.22;0.65;;;17.50;48.00;;;;;;5113740;28;20077;-71
2022/05/08 13:49:08;;;;;;;0.90;0.35;;;17.60;48.10;;;;;;5114257;28;20040;-71
2022/05/08 13:51:34;;;;;;;1.95;0.50;;;17.60;48.10;;;;;;5114054;28;20520;-71
2022/05/08 13:54:00;;;;;;;2.78;0.30;;;17.50;48.00;;;;;;5113835;28;20048;-70
2022/05/08 13:56:25;;;;;;;1.67;0.50;;;17.50;48.10;;;;;;5113929;28;20067;-71
2022/05/08 13:58:56;;;;;;;2.00;0.25;;;17.50;48.00;;;;;;5114641;28;20410;-71
2022/05/08 14:01:22;;;;;;;1.88;0.43;;;17.60;48.10;;;;;;5114663;28;20119;-71
2022/05/08 14:03:48;;;;;;;2.72;0.45;;;17.60;48.00;;;;;;5114879;28;20104;-72
2022/05/08 14:06:14;;;;;;;2.90;0.50;;;17.60;48.00;;;;;;5113343;28;20032;-72
2022/05/08 14:08:40;;;;;;;1.30;0.30;;;17.60;48.00;;;;;;5113653;28;20036;-71
2022/05/08 14:11:06;;;;;;;3.05;0.20;;;17.60;48.00;;;;;;5114587;28;20059;-72
2022/05/08 14:13:31;;;;;;;3.75;0.40;;;17.60;48.00;;;;;;5115090;28;20031;-72
2022/05/08 14:15:57;;;;;;;0.95;0.30;;;17.60;47.90;;;;;;5113233;28;20220;-71
2022/05/08 14:18:23;;;;;;;2.53;0.63;;;17.60;47.90;;;;;;5114436;28;20048;-64